Time;durP1;ratioP1;P1;durP2;ratioP2;P2;SDS_P1;SDS_P2;PMS_P1;PMS_P2;Temp;Humidity;BMP_temperature;BMP_pressure;BME280_temperature;BME280_humidity;BME280_pressure;Samples;Min_cycle;Max_cycle;Signal;HPM_P1;HPM_P2
2023/07/23 00:00:56;;;;;;;52.57;10.20;;;;;;;19.08;52.98;96125.44;5029046;28;20417;-67
2023/07/23 00:03:21;;;;;;;13.13;8.27;;;;;;;19.08;52.70;96120.13;5027661;28;20204;-68
2023/07/23 00:05:46;;;;;;;12.67;7.13;;;;;;;19.15;52.33;96119.47;5027975;28;20627;-65
2023/07/23 00:08:13;;;;;;;7.77;6.80;;;;;;;19.12;52.85;96117.09;5027912;28;20692;-67
2023/07/23 00:10:38;;;;;;;8.60;7.30;;;;;;;19.12;52.23;96114.44;5030956;28;20163;-66
2023/07/23 00:13:04;;;;;;;8.60;7.60;;;;;;;19.02;52.64;96116.16;5031880;28;20408;-67
2023/07/23 00:15:29;;;;;;;9.00;5.90;;;;;;;18.81;53.58;96113.44;5032002;28;20191;-65
2023/07/23 00:17:57;;;;;;;10.10;6.40;;;;;;;18.92;53.33;96110.78;5031658;28;20176;-67
2023/07/23 00:20:22;;;;;;;8.10;6.63;;;;;;;18.96;53.28;96114.00;5031508;28;20180;-67
2023/07/23 00:22:47;;;;;;;11.70;7.77;;;;;;;18.87;53.07;96112.09;5031705;28;20459;-67
2023/07/23 00:25:13;;;;;;;8.47;6.63;;;;;;;18.87;53.52;96104.13;5032904;28;20275;-67
2023/07/23 00:27:38;;;;;;;17.77;8.00;;;;;;;18.69;54.09;96109.09;5034796;28;20206;-68
2023/07/23 00:30:04;;;;;;;18.17;8.10;;;;;;;18.80;53.80;96109.94;5034238;28;20535;-67
2023/07/23 00:32:30;;;;;;;9.90;7.50;;;;;;;18.80;53.75;96101.97;5032561;28;20171;-65
2023/07/23 00:34:55;;;;;;;8.30;7.07;;;;;;;18.78;53.92;96103.03;5032061;28;20801;-66
2023/07/23 00:37:20;;;;;;;8.07;6.60;;;;;;;18.76;53.61;96103.19;5031796;28;20179;-67
2023/07/23 00:39:46;;;;;;;9.50;6.93;;;;;;;18.68;53.75;96110.06;5031761;28;20168;-68
2023/07/23 00:42:11;;;;;;;6.93;6.13;;;;;;;18.70;53.67;96114.28;5031700;28;20214;-68
2023/07/23 00:44:37;;;;;;;11.50;6.80;;;;;;;18.81;53.44;96103.66;5031513;28;20187;-67
2023/07/23 00:47:03;;;;;;;13.97;7.30;;;;;;;18.76;53.77;96100.53;5031567;28;20190;-67
2023/07/23 00:49:29;;;;;;;13.33;7.20;;;;;;;18.78;53.57;96095.94;5030979;28;20171;-68
2023/07/23 00:51:55;;;;;;;10.33;7.10;;;;;;;18.73;53.33;96097.22;5031230;28;20167;-69
2023/07/23 00:54:21;;;;;;;7.63;6.57;;;;;;;18.72;53.45;96090.25;5030914;28;20503;-65
2023/07/23 00:56:47;;;;;;;9.50;6.03;;;;;;;18.77;52.94;96094.22;5031357;28;20641;-69
2023/07/23 00:59:13;;;;;;;10.23;6.73;;;;;;;18.87;52.57;96089.00;5035668;28;20205;-66
2023/07/23 01:01:38;;;;;;;10.40;7.03;;;;;;;18.76;52.87;96081.06;5050995;28;20886;-68
2023/07/23 01:04:05;;;;;;;8.97;6.47;;;;;;;18.68;52.90;96084.31;5050473;28;20732;-68
2023/07/23 01:06:33;;;;;;;11.40;7.47;;;;;;;18.81;52.80;96085.03;5050762;28;20193;-68
2023/07/23 01:08:59;;;;;;;9.80;6.60;;;;;;;18.68;52.35;96086.13;5050430;28;20905;-69
2023/07/23 01:11:26;;;;;;;11.67;6.43;;;;;;;18.68;52.54;96083.47;5050738;28;20397;-68
2023/07/23 01:13:52;;;;;;;7.20;6.17;;;;;;;18.57;53.05;96082.53;5050246;28;20433;-69
2023/07/23 01:16:18;;;;;;;6.10;5.50;;;;;;;18.49;53.75;96084.13;5050554;28;20828;-67
2023/07/23 01:18:44;;;;;;;7.40;5.80;;;;;;;18.39;53.97;96094.66;5050254;28;20410;-68
2023/07/23 01:21:10;;;;;;;8.00;5.23;;;;;;;18.52;53.01;96091.84;5048803;28;20948;-67
2023/07/23 01:23:36;;;;;;;6.63;5.80;;;;;;;17.92;54.92;96084.16;5050189;28;20226;-68
2023/07/23 01:26:02;;;;;;;8.93;5.77;;;;;;;17.94;55.32;96092.84;5050144;28;20405;-68
2023/07/23 01:28:28;;;;;;;9.90;6.70;;;;;;;17.83;55.96;96092.84;5050121;28;20409;-68
2023/07/23 01:30:54;;;;;;;12.03;6.13;;;;;;;17.60;56.93;96088.44;5049791;28;20924;-66
2023/07/23 01:33:20;;;;;;;8.90;6.20;;;;;;;17.85;56.70;96084.78;5050054;28;20198;-68
2023/07/23 01:35:46;;;;;;;7.13;6.20;;;;;;;17.57;57.96;96086.88;5050135;28;20490;-69
2023/07/23 01:38:13;;;;;;;7.50;6.80;;;;;;;17.56;57.87;96083.38;5050096;28;20417;-67
2023/07/23 01:40:40;;;;;;;7.53;5.90;;;;;;;17.44;58.22;96086.13;5050557;28;20179;-67
2023/07/23 01:43:06;;;;;;;8.10;6.20;;;;;;;17.52;58.36;96081.91;5050183;28;20481;-68
2023/07/23 01:45:32;;;;;;;7.30;6.23;;;;;;;17.46;58.35;96085.06;5049983;28;20554;-67
2023/07/23 01:47:57;;;;;;;7.57;6.37;;;;;;;17.50;58.31;96086.53;5049991;28;20428;-68
2023/07/23 01:50:23;;;;;;;10.13;6.50;;;;;;;17.31;59.14;96078.25;5049591;28;20578;-67
2023/07/23 01:52:48;;;;;;;9.97;6.47;;;;;;;17.48;58.36;96077.81;5049931;28;20174;-67
2023/07/23 01:55:14;;;;;;;7.70;6.30;;;;;;;17.53;58.30;96085.44;5049687;28;20214;-67
2023/07/23 01:57:39;;;;;;;8.10;6.20;;;;;;;17.62;57.25;96073.25;5049745;28;20169;-67
2023/07/23 02:00:07;;;;;;;8.60;6.50;;;;;;;17.73;56.73;96079.41;5037726;28;20178;-67
2023/07/23 02:02:33;;;;;;;7.73;6.37;;;;;;;17.82;56.28;96071.75;5029812;28;20207;-68
2023/07/23 02:04:58;;;;;;;7.07;5.43;;;;;;;17.93;55.86;96063.78;5029827;28;20504;-67
2023/07/23 02:07:24;;;;;;;7.43;5.77;;;;;;;17.87;55.92;96070.41;5029714;28;20592;-68
2023/07/23 02:09:50;;;;;;;18.27;5.37;;;;;;;17.82;55.87;96074.41;5029371;28;20164;-68
2023/07/23 02:12:16;;;;;;;7.07;5.53;;;;;;;17.89;55.36;96065.84;5029551;28;20176;-67
2023/07/23 02:14:41;;;;;;;8.17;5.17;;;;;;;17.88;55.19;96064.16;5029372;28;20809;-67
2023/07/23 02:17:06;;;;;;;11.53;5.70;;;;;;;17.89;55.18;96065.84;5029684;28;20171;-67
2023/07/23 02:19:32;;;;;;;10.73;5.60;;;;;;;17.82;55.68;96069.09;5029172;28;20203;-66
2023/07/23 02:21:57;;;;;;;6.37;5.77;;;;;;;17.75;55.92;96064.22;5029365;28;20195;-67
2023/07/23 02:24:23;;;;;;;7.23;6.10;;;;;;;17.72;56.24;96072.44;5030174;28;20195;-68
2023/07/23 02:26:48;;;;;;;8.03;5.47;;;;;;;17.69;56.20;96067.38;5030278;28;20175;-67
2023/07/23 02:29:13;;;;;;;8.20;5.67;;;;;;;17.45;56.73;96069.25;5028847;28;20171;-68
2023/07/23 02:31:39;;;;;;;6.60;5.73;;;;;;;17.49;56.99;96060.94;5028971;28;20242;-67
2023/07/23 02:34:04;;;;;;;7.90;5.80;;;;;;;17.33;56.96;96074.50;5028654;28;20202;-67
2023/07/23 02:36:30;;;;;;;13.17;5.17;;;;;;;17.33;57.18;96076.34;5029417;28;20958;-66
2023/07/23 02:38:56;;;;;;;5.57;4.90;;;;;;;17.44;56.72;96070.22;5028748;28;20538;-67
2023/07/23 02:41:24;;;;;;;6.93;5.50;;;;;;;17.27;57.56;96074.16;5029027;28;20426;-68
2023/07/23 02:43:53;;;;;;;6.93;6.17;;;;;;;17.47;58.21;96076.13;5029036;28;20761;-70
2023/07/23 02:46:19;;;;;;;8.93;6.10;;;;;;;17.46;58.07;96070.94;5029242;28;20403;-67
2023/07/23 02:48:45;;;;;;;8.90;5.90;;;;;;;17.52;58.32;96073.13;5028931;28;20446;-66
2023/07/23 02:51:11;;;;;;;7.00;6.30;;;;;;;17.49;58.84;96073.34;5029388;28;20472;-65
2023/07/23 02:53:36;;;;;;;8.20;5.70;;;;;;;17.42;58.85;96067.69;5029539;28;20200;-67
2023/07/23 02:56:01;;;;;;;9.00;6.57;;;;;;;17.48;58.13;96069.00;5035905;28;20178;-66
2023/07/23 02:58:27;;;;;;;7.73;6.00;;;;;;;17.48;57.65;96061.03;5028997;28;20249;-67
2023/07/23 03:00:55;;;;;;;11.90;6.00;;;;;;;17.43;57.53;96068.50;5046879;28;20266;-67
2023/07/23 03:03:21;;;;;;;20.20;8.30;;;;;;;17.32;58.09;96072.84;5048571;28;20206;-69
2023/07/23 03:05:46;;;;;;;9.00;6.40;;;;;;;17.44;57.99;96076.38;5048825;28;20416;-68
2023/07/23 03:08:11;;;;;;;9.03;6.80;;;;;;;17.40;57.86;96076.72;5048724;28;20457;-67
2023/07/23 03:10:39;;;;;;;15.17;6.30;;;;;;;17.40;57.75;96066.94;5048286;28;20171;-69
2023/07/23 03:13:04;;;;;;;16.43;8.30;;;;;;;17.30;58.15;96072.09;5048475;28;20686;-68
2023/07/23 03:15:30;;;;;;;13.17;6.90;;;;;;;17.20;58.59;96072.94;5048453;28;20437;-68
2023/07/23 03:17:55;;;;;;;12.23;6.10;;;;;;;17.29;58.17;96070.44;5048242;28;20178;-68
2023/07/23 03:20:20;;;;;;;19.33;8.27;;;;;;;17.24;58.55;96061.94;5048044;28;20206;-69
2023/07/23 03:22:46;;;;;;;8.17;6.50;;;;;;;17.30;58.41;96065.97;5048189;28;20552;-69
2023/07/23 03:25:11;;;;;;;10.20;6.67;;;;;;;17.30;58.18;96077.41;5048151;28;20202;-69
2023/07/23 03:27:37;;;;;;;17.77;7.13;;;;;;;17.27;57.92;96060.91;5048242;28;20896;-69
2023/07/23 03:30:03;;;;;;;9.00;5.77;;;;;;;17.26;58.14;96062.69;5047900;28;20190;-68
2023/07/23 03:32:29;;;;;;;11.97;6.83;;;;;;;17.28;58.05;96066.06;5048274;28;20229;-67
2023/07/23 03:34:54;;;;;;;9.70;6.20;;;;;;;17.23;57.88;96056.78;5048091;28;20437;-65
2023/07/23 03:37:19;;;;;;;31.10;8.70;;;;;;;17.29;57.89;96058.94;5048306;28;20216;-65
2023/07/23 03:39:45;;;;;;;22.93;7.50;;;;;;;17.37;57.54;96058.38;5048214;28;20265;-66
2023/07/23 03:42:10;;;;;;;15.87;6.40;;;;;;;17.30;58.06;96052.69;5048796;28;20202;-68
2023/07/23 03:44:36;;;;;;;11.20;6.03;;;;;;;17.32;57.93;96050.78;5049077;28;20190;-69
2023/07/23 03:47:21;;;;;;;9.43;5.97;;;;;;;17.24;58.38;96054.00;5030277;28;20706;-67
2023/07/23 03:49:48;;;;;;;14.40;5.97;;;;;;;17.22;58.29;96049.78;5048082;28;20737;-69
2023/07/23 03:52:13;;;;;;;14.80;6.50;;;;;;;17.18;58.22;96053.66;5047753;28;20417;-68
2023/07/23 03:54:39;;;;;;;40.13;8.67;;;;;;;17.22;57.82;96055.94;5047679;28;20444;-68
2023/07/23 03:57:05;;;;;;;22.27;7.80;;;;;;;17.25;57.70;96054.88;5047809;28;20171;-69
2023/07/23 03:59:35;;;;;;;20.63;5.53;;;;;;;17.32;56.71;96056.94;5040932;28;20167;-69
2023/07/23 04:02:01;;;;;;;9.87;6.40;;;;;;;17.30;57.13;96058.84;5028009;28;20462;-68
2023/07/23 04:04:26;;;;;;;13.00;5.70;;;;;;;17.41;56.66;96052.72;5027782;28;20480;-68
2023/07/23 04:06:52;;;;;;;10.90;5.50;;;;;;;17.45;56.60;96053.31;5027982;28;20180;-68
2023/07/23 04:09:18;;;;;;;11.37;5.30;;;;;;;17.50;56.21;96060.00;5027593;28;20604;-68
2023/07/23 04:11:44;;;;;;;15.23;6.23;;;;;;;17.49;56.17;96055.63;5027787;28;20637;-68
2023/07/23 04:14:09;;;;;;;20.20;6.33;;;;;;;17.47;56.16;96052.25;5027807;28;20426;-67
2023/07/23 04:16:35;;;;;;;12.50;6.30;;;;;;;17.42;56.29;96050.91;5027633;28;20536;-68
2023/07/23 04:19:00;;;;;;;44.00;9.27;;;;;;;17.42;55.94;96057.06;5027395;28;20226;-68
2023/07/23 04:21:26;;;;;;;21.07;7.53;;;;;;;17.45;56.31;96058.63;5027435;28;20199;-67
2023/07/23 04:23:55;;;;;;;18.20;6.70;;;;;;;17.48;56.16;96055.72;5027498;28;20203;-68
2023/07/23 04:26:21;;;;;;;27.97;7.73;;;;;;;17.46;56.21;96055.88;5027491;28;20201;-68
2023/07/23 04:28:49;;;;;;;23.83;6.53;;;;;;;17.45;55.81;96061.28;5027390;28;20824;-69
2023/07/23 04:31:14;;;;;;;10.07;5.60;;;;;;;17.61;55.66;96061.78;5027620;28;20946;-69
2023/07/23 04:33:39;;;;;;;10.83;4.83;;;;;;;17.96;54.61;96064.38;5027987;28;20422;-68
2023/07/23 04:36:07;;;;;;;10.90;6.20;;;;;;;18.22;53.80;96061.47;5027637;28;20246;-68
2023/07/23 04:38:32;;;;;;;10.40;5.07;;;;;;;18.59;52.31;96054.03;5027616;28;20783;-67
2023/07/23 04:40:58;;;;;;;11.97;5.50;;;;;;;18.82;51.92;96057.47;5027149;28;20418;-66
2023/07/23 04:43:23;;;;;;;8.17;5.20;;;;;;;19.04;51.32;96063.69;5027382;28;20200;-67
2023/07/23 04:45:48;;;;;;;13.67;6.10;;;;;;;19.21;50.44;96056.97;5027641;28;20164;-68
2023/07/23 04:48:16;;;;;;;12.67;6.10;;;;;;;19.37;50.21;96061.81;5027348;28;20313;-69
2023/07/23 04:50:41;;;;;;;18.97;6.20;;;;;;;19.43;49.94;96058.66;5009386;28;20168;-67
2023/07/23 04:53:07;;;;;;;12.97;5.53;;;;;;;19.65;49.35;96049.66;5027507;28;21117;-67
2023/07/23 04:55:33;;;;;;;10.70;5.03;;;;;;;19.81;48.73;96047.41;5028271;28;20720;-66
2023/07/23 04:57:58;;;;;;;10.43;5.83;;;;;;;19.91;48.44;96046.59;5031078;28;20258;-68
2023/07/23 05:00:24;;;;;;;8.00;4.87;;;;;;;19.96;48.22;96049.72;5044519;28;20649;-66
2023/07/23 05:02:49;;;;;;;8.33;5.90;;;;;;;20.15;48.15;96054.25;5050739;28;20186;-66
2023/07/23 05:05:14;;;;;;;10.00;5.20;;;;;;;20.19;47.75;96050.38;5050703;28;20198;-68
2023/07/23 05:07:40;;;;;;;15.90;5.80;;;;;;;20.20;47.55;96052.06;5050675;28;20598;-67
2023/07/23 05:10:06;;;;;;;9.93;5.37;;;;;;;20.43;47.50;96048.22;5050300;28;20182;-69
2023/07/23 05:12:32;;;;;;;7.70;5.20;;;;;;;20.51;47.29;96051.00;5050575;28;20190;-66
2023/07/23 05:15:11;;;;;;;7.63;4.63;;;;;;;20.60;47.11;96048.53;5051058;28;21264;-68
2023/07/23 05:17:37;;;;;;;9.10;5.63;;;;;;;20.70;47.04;96044.06;5051232;28;20177;-68
2023/07/23 05:20:05;;;;;;;11.30;4.80;;;;;;;20.77;46.85;96042.53;5054377;28;20409;-67
2023/07/23 05:22:31;;;;;;;14.70;5.00;;;;;;;20.90;46.96;96043.09;5054225;28;20202;-70
2023/07/23 05:24:56;;;;;;;6.77;5.10;;;;;;;21.01;46.58;96054.63;5050282;28;20779;-68
2023/07/23 05:27:22;;;;;;;9.93;4.47;;;;;;;21.10;45.95;96045.78;5050569;28;21589;-68
2023/07/23 05:29:47;;;;;;;12.33;4.90;;;;;;;21.13;46.10;96046.31;5050158;28;20213;-68
2023/07/23 05:32:12;;;;;;;9.87;5.17;;;;;;;21.29;45.79;96045.75;5050464;28;20171;-68
2023/07/23 05:34:38;;;;;;;10.87;5.37;;;;;;;21.49;45.44;96046.59;5050142;28;20191;-67
2023/07/23 05:37:03;;;;;;;13.10;4.40;;;;;;;21.70;44.75;96048.25;5050405;28;20232;-68
2023/07/23 05:39:29;;;;;;;19.57;6.20;;;;;;;21.76;44.90;96047.66;5049846;28;20173;-69
2023/07/23 05:41:54;;;;;;;13.87;5.67;;;;;;;21.92;44.41;96044.38;5050407;28;20217;-68
2023/07/23 05:44:19;;;;;;;6.90;4.73;;;;;;;21.84;44.79;96049.59;5050080;28;20198;-69
2023/07/23 05:46:45;;;;;;;13.70;4.30;;;;;;;22.07;44.34;96047.41;5049982;28;20273;-68
2023/07/23 05:49:10;;;;;;;6.47;4.50;;;;;;;22.16;44.28;96051.88;5049809;28;20598;-69
2023/07/23 05:51:36;;;;;;;15.03;5.30;;;;;;;22.42;43.79;96057.41;5049983;28;20169;-69
2023/07/23 05:54:01;;;;;;;12.80;4.60;;;;;;;22.48;43.65;96054.13;5050659;28;20187;-68
2023/07/23 05:56:27;;;;;;;13.93;5.13;;;;;;;22.69;43.31;96059.22;5052005;28;20232;-68
2023/07/23 05:58:52;;;;;;;11.17;4.37;;;;;;;22.78;42.99;96052.13;5048234;28;20996;-67
2023/07/23 06:01:18;;;;;;;10.73;4.87;;;;;;;22.99;43.10;96058.06;5029895;28;20476;-67
2023/07/23 06:03:43;;;;;;;11.83;4.67;;;;;;;22.96;43.12;96052.97;5029832;28;20184;-69
2023/07/23 06:06:08;;;;;;;15.20;5.23;;;;;;;23.28;42.75;96056.13;5029748;28;20283;-69
2023/07/23 06:08:34;;;;;;;36.73;6.67;;;;;;;23.34;42.62;96061.72;5029056;28;20172;-68
2023/07/23 06:10:59;;;;;;;10.47;5.30;;;;;;;23.32;42.75;96053.00;5030328;28;20249;-68
2023/07/23 06:13:24;;;;;;;6.83;4.87;;;;;;;23.36;42.51;96062.41;5032952;28;20175;-69
2023/07/23 06:15:50;;;;;;;22.40;5.77;;;;;;;23.63;42.17;96056.06;5029635;28;20172;-68
2023/07/23 06:18:15;;;;;;;15.00;6.10;;;;;;;23.72;42.12;96059.66;5029579;28;20581;-67
2023/07/23 06:20:40;;;;;;;16.70;5.10;;;;;;;23.98;41.66;96058.84;5029195;28;20547;-69
2023/07/23 06:23:06;;;;;;;8.80;4.30;;;;;;;23.87;41.61;96063.47;5029226;28;20195;-68
2023/07/23 06:25:31;;;;;;;7.60;4.30;;;;;;;24.10;41.27;96049.53;5029390;28;20586;-69
2023/07/23 06:27:56;;;;;;;10.03;4.53;;;;;;;24.47;40.74;96051.91;5029419;28;20172;-68
2023/07/23 06:30:22;;;;;;;13.73;4.47;;;;;;;24.53;40.31;96053.09;5029071;28;20703;-68
2023/07/23 06:32:47;;;;;;;11.53;3.90;;;;;;;24.49;40.49;96047.19;5029332;28;20167;-68
2023/07/23 06:35:13;;;;;;;10.53;4.43;;;;;;;24.33;40.36;96049.81;5029012;28;20583;-65
2023/07/23 06:37:40;;;;;;;6.57;3.53;;;;;;;24.43;40.37;96044.31;5029227;28;20168;-68
2023/07/23 06:40:06;;;;;;;9.97;5.07;;;;;;;24.64;40.11;96050.13;5029420;28;20171;-65
2023/07/23 06:42:32;;;;;;;17.13;4.80;;;;;;;24.69;39.78;96045.09;5029310;28;20489;-68
2023/07/23 06:44:57;;;;;;;5.03;4.53;;;;;;;24.73;39.83;96048.28;5028941;28;20880;-69
2023/07/23 06:47:23;;;;;;;12.97;4.90;;;;;;;24.79;39.83;96044.13;5028810;28;20181;-67
2023/07/23 06:49:48;;;;;;;9.17;4.60;;;;;;;25.07;39.01;96039.28;5028539;28;20178;-66
2023/07/23 06:52:13;;;;;;;5.07;3.80;;;;;;;25.14;39.20;96045.69;5028784;28;20163;-68
2023/07/23 06:54:42;;;;;;;4.73;3.97;;;;;;;25.17;39.01;96037.28;5028873;28;20187;-69
2023/07/23 06:57:08;;;;;;;5.60;4.47;;;;;;;24.99;38.87;96040.09;5028958;28;20394;-66
2023/07/23 06:59:33;;;;;;;10.53;4.20;;;;;;;25.28;38.58;96038.84;5035540;28;20413;-68
2023/07/23 07:01:59;;;;;;;6.10;4.37;;;;;;;25.11;38.76;96037.94;5048605;28;20273;-68
2023/07/23 07:04:24;;;;;;;11.13;4.53;;;;;;;25.47;38.80;96041.19;5048386;28;20201;-68
2023/07/23 07:06:49;;;;;;;8.93;4.33;;;;;;;25.34;38.95;96046.22;5052612;28;20249;-68
2023/07/23 07:09:15;;;;;;;8.00;4.20;;;;;;;25.30;39.08;96040.34;5054038;28;20175;-67
2023/07/23 07:11:40;;;;;;;6.80;4.30;;;;;;;25.47;38.69;96040.34;5051397;28;20248;-68
2023/07/23 07:14:05;;;;;;;21.07;4.70;;;;;;;25.58;38.81;96042.66;5052732;28;20199;-68
2023/07/23 07:16:31;;;;;;;9.00;4.30;;;;;;;25.62;39.01;96037.81;5048631;28;20732;-68
2023/07/23 07:18:56;;;;;;;10.70;4.67;;;;;;;25.64;39.10;96041.19;5048331;28;20214;-68
2023/07/23 07:21:22;;;;;;;7.83;4.50;;;;;;;25.25;39.85;96044.53;5048598;28;20174;-68
2023/07/23 07:23:47;;;;;;;8.77;4.17;;;;;;;25.24;39.95;96041.00;5048415;28;20194;-69
2023/07/23 07:26:12;;;;;;;6.80;4.73;;;;;;;25.17;40.79;96041.81;5048487;28;20257;-67
2023/07/23 07:28:38;;;;;;;6.57;3.60;;;;;;;25.58;40.06;96045.34;5048461;28;20171;-66
2023/07/23 07:31:03;;;;;;;12.30;4.73;;;;;;;25.91;39.24;96048.88;5048189;28;20175;-67
2023/07/23 07:33:29;;;;;;;9.90;4.57;;;;;;;25.87;39.26;96049.41;5048243;28;20606;-68
2023/07/23 07:35:57;;;;;;;12.47;5.60;;;;;;;25.91;38.84;96043.50;5048157;28;20171;-67
2023/07/23 07:38:23;;;;;;;6.07;4.03;;;;;;;26.10;38.68;96036.06;5048112;28;20409;-68
2023/07/23 07:40:50;;;;;;;5.73;3.90;;;;;;;26.08;38.32;96038.94;5047942;28;20413;-67
2023/07/23 07:43:17;;;;;;;14.97;4.70;;;;;;;25.85;38.94;96033.41;5047736;28;20453;-73
2023/07/23 07:45:50;;;;;;;5.10;3.60;;;;;;;25.92;38.44;96039.81;5048091;28;20630;-67
2023/07/23 07:48:20;;;;;;;9.90;4.50;;;;;;;25.63;38.93;96036.78;5047686;28;20409;-66
2023/07/23 07:50:45;;;;;;;10.83;4.73;;;;;;;25.37;39.67;96037.84;5047174;28;20895;-67
2023/07/23 07:53:11;;;;;;;5.10;3.63;;;;;;;25.30;39.96;96037.66;5047852;28;20496;-66
2023/07/23 07:55:41;;;;;;;8.03;3.90;;;;;;;25.02;40.15;96042.47;5047959;28;20187;-66
2023/07/23 07:58:07;;;;;;;7.10;4.00;;;;;;;25.15;40.19;96031.22;5047822;28;20182;-67
2023/07/23 08:00:33;;;;;;;5.93;3.80;;;;;;;25.09;40.29;96042.66;5032012;28;21251;-67
2023/07/23 08:02:59;;;;;;;12.83;4.37;;;;;;;25.45;40.16;96032.44;5027636;28;20518;-66
2023/07/23 08:05:24;;;;;;;10.33;3.90;;;;;;;25.93;39.09;96046.84;5027504;28;20537;-68
2023/07/23 08:07:50;;;;;;;8.13;4.20;;;;;;;26.31;38.36;96022.88;5027568;28;20178;-67
2023/07/23 08:10:17;;;;;;;5.10;3.73;;;;;;;26.61;37.75;96023.09;5027464;28;20172;-67
2023/07/23 08:12:44;;;;;;;3.57;3.23;;;;;;;26.65;37.55;96021.75;5027652;28;20502;-67
2023/07/23 08:15:10;;;;;;;8.40;3.43;;;;;;;26.75;37.23;96014.28;5027714;28;20425;-68
2023/07/23 08:17:36;;;;;;;4.10;3.70;;;;;;;26.87;37.15;96016.56;5027970;28;20413;-68
2023/07/23 08:20:03;;;;;;;10.37;4.37;;;;;;;26.68;36.62;96016.00;5027523;28;20186;-67
2023/07/23 08:22:29;;;;;;;4.90;4.27;;;;;;;26.63;36.93;96015.69;5027664;28;20755;-67
2023/07/23 08:24:55;;;;;;;18.67;4.40;;;;;;;26.71;36.76;96018.31;5027455;28;20517;-67
2023/07/23 08:27:22;;;;;;;6.37;3.50;;;;;;;26.93;36.32;96008.63;5027739;28;20224;-65
2023/07/23 08:29:48;;;;;;;4.67;3.37;;;;;;;27.05;35.70;96003.66;5027461;28;20182;-67
2023/07/23 08:32:16;;;;;;;8.93;3.60;;;;;;;27.06;35.55;96008.00;5031104;28;20772;-67
2023/07/23 08:34:43;;;;;;;9.23;3.80;;;;;;;27.14;35.31;96005.28;5031293;28;20706;-67
2023/07/23 08:37:09;;;;;;;8.07;3.90;;;;;;;27.38;35.07;96008.78;5031304;28;20479;-67
2023/07/23 08:39:35;;;;;;;5.63;3.13;;;;;;;27.41;34.89;96008.44;5030701;28;20410;-66
2023/07/23 08:42:13;;;;;;;7.40;3.30;;;;;;;27.53;34.24;96006.97;5031641;28;21038;-66
2023/07/23 08:44:57;;;;;;;6.73;3.30;;;;;;;26.97;35.40;96011.78;5031311;28;20199;-66
2023/07/23 08:47:25;;;;;;;20.03;4.37;;;;;;;26.93;35.87;96010.44;5031302;28;20417;-67
2023/07/23 08:49:52;;;;;;;8.93;3.30;;;;;;;27.30;34.97;96012.41;5031005;28;20406;-67
2023/07/23 08:52:19;;;;;;;4.93;3.30;;;;;;;27.47;34.35;96014.94;5031114;28;21020;-67
2023/07/23 08:54:45;;;;;;;19.33;4.60;;;;;;;27.65;33.76;96004.69;5030938;28;20947;-69
2023/07/23 08:57:11;;;;;;;6.77;3.23;;;;;;;27.68;33.41;96012.38;5031206;28;20413;-66
2023/07/23 08:59:39;;;;;;;5.93;2.87;;;;;;;27.81;32.20;96009.91;5038305;28;20409;-68
2023/07/23 09:02:07;;;;;;;4.67;2.67;;;;;;;27.61;32.27;96003.34;5051041;28;20190;-67
2023/07/23 09:04:34;;;;;;;5.43;3.60;;;;;;;27.66;32.94;96009.03;5050929;28;20425;-67
2023/07/23 09:07:00;;;;;;;4.00;3.53;;;;;;;27.85;32.50;95999.59;5051083;28;20420;-66
2023/07/23 09:09:26;;;;;;;9.67;3.60;;;;;;;27.94;32.26;95992.28;5050758;28;20422;-67
2023/07/23 09:11:52;;;;;;;7.97;3.90;;;;;;;27.99;31.64;95992.56;5050688;28;20408;-66
2023/07/23 09:14:17;;;;;;;12.13;4.23;;;;;;;27.75;31.76;95999.03;5050678;28;20182;-68
2023/07/23 09:16:48;;;;;;;5.53;3.27;;;;;;;27.99;31.76;95995.25;5050825;28;20220;-68
2023/07/23 09:19:22;;;;;;;5.20;2.97;;;;;;;27.89;31.90;95995.53;5050610;28;20237;-68
2023/07/23 09:21:47;;;;;;;10.03;3.23;;;;;;;28.09;32.19;95995.81;5050524;28;20905;-67
2023/07/23 09:24:15;;;;;;;5.40;3.10;;;;;;;28.28;31.54;95991.72;5050655;28;20428;-68
2023/07/23 09:26:41;;;;;;;4.40;2.70;;;;;;;28.17;31.07;95986.78;5050655;28;20261;-68
2023/07/23 09:29:09;;;;;;;4.70;2.53;;;;;;;28.00;30.75;95996.94;5050177;28;20408;-68
2023/07/23 09:31:36;;;;;;;4.50;3.10;;;;;;;28.03;30.67;95993.88;5050808;28;20417;-66
2023/07/23 09:34:02;;;;;;;3.70;2.70;;;;;;;28.03;30.87;95991.16;5050067;28;20440;-67
2023/07/23 09:36:29;;;;;;;6.93;3.30;;;;;;;27.74;31.13;96000.88;5050457;28;20413;-68
2023/07/23 09:39:08;;;;;;;6.10;2.70;;;;;;;27.99;31.30;95996.09;5049867;28;20409;-67
2023/07/23 09:41:38;;;;;;;4.23;2.43;;;;;;;27.78;31.18;95998.63;5031426;28;20424;-68
2023/07/23 09:44:08;;;;;;;20.10;4.17;;;;;;;27.92;31.04;96003.22;5049822;28;20485;-68
2023/07/23 09:46:35;;;;;;;7.07;2.90;;;;;;;27.75;30.97;95991.75;5049963;28;20462;-69
2023/07/23 09:49:01;;;;;;;14.17;4.50;;;;;;;27.90;30.79;95991.81;5049663;28;20558;-69
2023/07/23 09:51:27;;;;;;;9.33;3.20;;;;;;;28.04;31.03;95982.03;5050018;28;20491;-69
2023/07/23 09:53:52;;;;;;;7.83;3.60;;;;;;;27.59;31.82;95989.22;5049931;28;21135;-69
2023/07/23 09:56:20;;;;;;;6.83;2.80;;;;;;;27.44;31.20;95990.03;5050150;28;20181;-67
2023/07/23 09:58:47;;;;;;;4.50;2.90;;;;;;;27.19;31.68;95991.22;5048714;28;20208;-69
2023/07/23 10:01:15;;;;;;;6.30;3.50;;;;;;;27.57;30.76;95989.44;5029767;28;20497;-68
2023/07/23 10:03:42;;;;;;;28.00;5.00;;;;;;;27.73;30.61;95987.56;5029655;28;20985;-69
2023/07/23 10:06:11;;;;;;;8.17;3.57;;;;;;;27.37;31.35;95985.56;5032730;28;20421;-69
2023/07/23 10:08:42;;;;;;;10.50;3.40;;;;;;;27.42;31.41;95983.16;5031571;28;20747;-69
2023/07/23 10:11:09;;;;;;;18.83;4.37;;;;;;;27.38;31.68;95968.38;5029821;28;20410;-69
2023/07/23 10:13:35;;;;;;;12.37;4.13;;;;;;;27.45;31.93;95977.44;5029424;28;20517;-68
2023/07/23 10:16:04;;;;;;;8.50;3.73;;;;;;;27.82;31.47;95983.78;5029429;28;20401;-68
2023/07/23 10:18:30;;;;;;;4.47;3.07;;;;;;;27.96;31.40;95974.06;5029493;28;20412;-68
2023/07/23 10:20:56;;;;;;;3.90;3.20;;;;;;;27.48;31.64;95960.03;5030901;28;20409;-68
2023/07/23 10:23:23;;;;;;;11.33;3.50;;;;;;;27.34;32.10;95969.78;5030149;28;20850;-68
2023/07/23 10:25:48;;;;;;;4.93;3.20;;;;;;;27.21;32.00;95965.84;5029571;28;20181;-68
2023/07/23 10:28:22;;;;;;;6.20;3.20;;;;;;;27.17;32.64;95974.44;5030650;28;20436;-67
2023/07/23 10:30:47;;;;;;;6.87;3.07;;;;;;;27.07;32.92;95963.88;5029352;28;20175;-69
2023/07/23 10:33:12;;;;;;;4.60;2.90;;;;;;;27.02;32.93;95969.84;5029781;28;20820;-67
2023/07/23 10:35:53;;;;;;;8.90;3.80;;;;;;;26.98;33.07;95971.22;5029435;28;20203;-67
2023/07/23 10:38:23;;;;;;;7.80;3.53;;;;;;;26.72;33.58;95955.41;5029026;28;20324;-68
2023/07/23 10:40:49;;;;;;;9.00;3.40;;;;;;;26.82;33.71;95956.00;5028324;28;20409;-68
2023/07/23 10:43:17;;;;;;;5.70;3.43;;;;;;;27.15;33.10;95944.97;5028668;28;20442;-72
2023/07/23 10:46:10;;;;;;;3.30;3.00;;;;;;;27.20;32.87;95939.06;5028844;28;20179;-68
2023/07/23 10:48:40;;;;;;;4.13;3.20;;;;;;;27.26;32.86;95932.97;5028850;28;20456;-66
2023/07/23 10:51:08;;;;;;;6.83;3.80;;;;;;;27.01;33.39;95935.84;5028461;28;20481;-68
2023/07/23 10:53:36;;;;;;;6.87;3.17;;;;;;;27.14;33.24;95943.31;5028119;28;20414;-68
2023/07/23 10:56:02;;;;;;;11.83;3.57;;;;;;;27.26;32.98;95932.97;5028591;28;20398;-67
2023/07/23 10:58:28;;;;;;;7.90;3.53;;;;;;;27.21;33.15;95938.91;5028573;28;20449;-67
2023/07/23 11:00:56;;;;;;;5.63;3.40;;;;;;;27.31;33.61;95943.16;5046739;28;20440;-68
2023/07/23 11:03:23;;;;;;;5.67;3.80;;;;;;;27.67;32.71;95936.06;5048217;28;20691;-70
2023/07/23 11:05:50;;;;;;;6.63;3.47;;;;;;;28.00;32.90;95930.34;5048080;28;20409;-69
2023/07/23 11:08:18;;;;;;;8.17;3.97;;;;;;;27.85;32.61;95924.09;5048189;28;20419;-69
2023/07/23 11:11:01;;;;;;;13.70;4.67;;;;;;;27.66;33.39;95925.47;5047813;28;20491;-67
2023/07/23 11:13:37;;;;;;;9.63;4.10;;;;;;;27.47;33.22;95924.16;5047865;28;20747;-68
2023/07/23 11:16:03;;;;;;;8.00;4.97;;;;;;;27.54;32.79;95927.78;5047931;28;20562;-68
2023/07/23 11:18:30;;;;;;;7.37;4.70;;;;;;;27.61;32.47;95926.03;5047937;28;20973;-67
2023/07/23 11:20:57;;;;;;;26.30;4.90;;;;;;;27.75;32.97;95923.53;5047586;28;20409;-68
2023/07/23 11:23:25;;;;;;;6.47;4.57;;;;;;;27.78;32.99;95913.22;5047908;28;20479;-68
2023/07/23 11:25:51;;;;;;;7.20;4.97;;;;;;;27.87;32.50;95905.88;5048019;28;20458;-67